• Join FlightAware (Why Join?)
  • Login
  • US Flag 
10:28AM EST


 

Airport Tracker/Info


-or-


 

Live Flight TrackerFlight Track Log ✈ SWA3383 ✈ 20-Aug-2014 ✈ KALB - KMCO

Flight Track Log - Related Links

Times and Time Zones

All times are in EDT time to prevent confusion due to time zone crossing. See the SWA3383 flight status page for this flight to view local times or setup timezone preferences in your user account.

Time Position Orientation Groundspeed Altitude Reporting Facility
EDT Latitude Longitude Course Direction KTS MPH feet Rate Location/Type
08:14AM 42.7681 -73.8058 326° Northwest 163 188 1,200  Level Boston Center
08:15AM 42.8231 -73.8567 332° Northwest 230 265 3,800 2,100 Climbing Boston Center
08:16AM 42.8617 -73.9275 307° West 251 289 5,700 3,120 Climbing Boston Center
08:17AM 42.9072 -74.0106 307° West 271 312 9,800 3,420 Climbing Boston Center
08:18AM 42.9178 -74.1094 278° West 301 346 12,800 2,760 Climbing Boston Center
08:19AM 42.8483 -74.1792 216° Southwest 311 358 15,500 2,580 Climbing Boston Center
08:20AM 42.7592 -74.2647 215° Southwest 361 415 18,100 2,280 Climbing Boston Center
08:21AM 42.6825 -74.3336 213° Southwest 372 428 20,200 2,280 Climbing Boston Center
08:22AM 42.5756 -74.3758 196° South 394 453 22,800 2,340 Climbing Boston Center
08:23AM 42.4592 -74.3461 169° South 419 482 25,000 1,860 Climbing Boston Center
08:24AM 42.3417 -74.3075 166° South 427 491 26,600 1,680 Climbing Boston Center
08:25AM 42.2203 -74.2683 167° South 439 505 28,500 1,920 Climbing Boston Center
08:26AM 42.0711 -74.2208 167° South 449 517 30,600 2,040 Climbing Boston Center
08:27AM 41.9467 -74.1806 166° South 455 524 32,700 1,920 Climbing Boston Center
08:28AM 41.8258 -74.2042 188° South 440 506 34,600 1,560 Climbing Boston Center
08:29AM 41.7153 -74.2461 196° South 431 496 35,900 1,200 Climbing Boston Center
08:30AM 41.5975 -74.2897 195° South 432 497 37,100 1,020 Climbing Boston Center
08:31AM 41.4803 -74.3333 196° South 436 502 38,000 420 Climbing Boston Center
08:32AM 41.3653 -74.3772 196° South 435 501 38,000  Level Boston Center
08:33AM 41.2375 -74.4242 195° South 435 501 38,000  Level Boston Center
08:34AM 41.1206 -74.4656 195° South 435 501 38,000  Level Boston Center
08:35AM 41.0050 -74.5078 195° South 435 501 38,000  Level Boston Center
08:36AM 40.8889 -74.5506 196° South 434 499 38,000  Level Boston Center
08:37AM 40.7731 -74.5919 195° South 434 499 38,000  Level Boston Center
08:38AM 40.6558 -74.6353 196° South 434 499 38,000  Level Boston Center
08:39AM 40.5158 -74.6850 195° South 434 499 38,000  Level Boston Center
08:40AM 40.3997 -74.7258 195° South 434 499 38,000  Level Boston Center
08:41AM 40.2844 -74.7658 195° South 430 495 38,000  Level Boston Center
08:42AM 40.1694 -74.8072 195° South 428 493 38,000  Level Boston Center
08:43AM 40.0331 -74.8544 195° South 427 491 38,000  Level Washington Center
08:44AM 39.9083 -74.8975 195° South 426 490 38,000  Level Washington Center
08:46AM 39.7839 -74.9444 196° South 431 496 38,000  Level Washington Center
08:47AM 39.6708 -74.9911 198° South 424 488 38,000  Level Washington Center
08:48AM 39.5653 -75.0342 197° South 432 497 38,000  Level Washington Center
08:49AM 39.4531 -75.0781 197° South 427 491 38,000  Level Washington Center
08:50AM 39.3178 -75.1311 197° South 426 490 38,000  Level Washington Center
08:51AM 39.2058 -75.1744 197° South 425 489 38,000  Level Washington Center
08:52AM 39.0933 -75.2175 197° South 423 487 38,000  Level Washington Center
08:53AM 38.9836 -75.2633 198° South 420 483 38,000  Level Washington Center
08:54AM 38.8717 -75.3053 196° South 419 482 38,000  Level Washington Center
08:55AM 38.7614 -75.3500 198° South 419 482 38,000  Level Washington Center
08:56AM 38.6264 -75.4006 196° South 420 483 38,000  Level Washington Center
08:57AM 38.5139 -75.4431 196° South 420 483 38,000  Level Washington Center
08:58AM 38.4014 -75.4858 197° South 421 484 38,000  Level Washington Center
08:59AM 38.2811 -75.5447 201° Southwest 421 484 38,000  Level Washington Center
09:00AM 38.1778 -75.6133 208° Southwest 421 484 38,000  Level Washington Center
09:01AM 38.0731 -75.6775 206° Southwest 421 484 38,000  Level Washington Center
09:02AM 37.9736 -75.7417 207° Southwest 421 484 38,000  Level Washington Center
09:03AM 37.8478 -75.8189 206° Southwest 420 483 38,000  Level Washington Center
09:04AM 37.7439 -75.8839 206° Southwest 420 483 38,000  Level Washington Center
09:05AM 37.6394 -75.9489 206° Southwest 420 483 38,000  Level Washington Center
09:06AM 37.5350 -76.0128 206° Southwest 420 483 38,000  Level Washington Center
09:07AM 37.4300 -76.0769 206° Southwest 420 483 38,000  Level Washington Center
09:08AM 37.3039 -76.1542 206° Southwest 421 484 38,000  Level Washington Center
09:09AM 37.1944 -76.2200 206° Southwest 421 484 38,000  Level Washington Center
09:10AM 37.0881 -76.2833 205° Southwest 421 484 38,000  Level Washington Center
09:11AM 36.9833 -76.3486 206° Southwest 421 484 38,000  Level Washington Center
09:12AM 36.8775 -76.4106 205° Southwest 421 484 38,000  Level Washington Center
09:13AM 36.7722 -76.4742 206° Southwest 421 484 38,000  Level Washington Center
09:15AM 36.6558 -76.5447 206° Southwest 422 486 38,000  Level Washington Center
09:16AM 36.5497 -76.6067 205° Southwest 422 486 38,000  Level Washington Center
09:17AM 36.4442 -76.6708 206° Southwest 423 487 38,000  Level Washington Center
09:19AM 36.2089 -76.8086 205° Southwest 425 489 38,100 300 Climbing Washington Center
09:20AM 36.1031 -76.8703 205° Southwest 425 489 39,100 900 Climbing Washington Center
09:21AM 35.9969 -76.9347 206° Southwest 424 488 40,000 420 Climbing Washington Center
09:22AM 35.8867 -76.9872 201° Southwest 425 489 40,000  Level Washington Center
09:23AM 35.7731 -77.0292 197° South 427 491 40,000  Level Washington Center
09:24AM 35.6383 -77.0825 198° South 427 491 40,000  Level Washington Center
09:25AM 35.5161 -77.1289 197° South 427 491 40,000  Level Washington Center
09:26AM 35.4033 -77.1728 198° South 425 489 40,000  Level Washington Center
09:27AM 35.2900 -77.2172 198° South 425 489 40,000  Level Washington Center
09:28AM 35.1772 -77.2614 198° South 425 489 40,000  Level Washington Center
09:29AM 35.0642 -77.3044 197° South 425 489 40,000  Level Washington Center
09:30AM 34.9514 -77.3483 198° South 424 488 40,000  Level Washington Center
09:31AM 34.8147 -77.4014 198° South 425 489 40,000  Level Washington Center
09:32AM 34.7181 -77.4381 197° South 425 489 40,000  Level Washington Center
09:33AM 34.5822 -77.4906 198° South 426 490 40,000  Level Washington Center
09:34AM 34.4683 -77.5331 197° South 424 488 40,000  Level Washington Center
09:35AM 34.3558 -77.5753 197° South 424 488 40,000  Level Washington Center
09:36AM 34.2442 -77.6169 197° South 421 484 40,000  Level Washington Center
09:37AM 34.1317 -77.6578 197° South 421 484 40,000  Level Washington Center
09:38AM 34.0483 -77.6872 196° South 429 494 40,000  Level Jacksonville Center
09:39AM 33.9372 -77.7289 197° South 429 494 40,000  Level Jacksonville Center
09:40AM 33.8242 -77.7681 196° South 429 494 40,000  Level Jacksonville Center
09:41AM 33.7111 -77.8094 197° South 429 494 40,000  Level Jacksonville Center
09:42AM 33.5939 -77.8561 198° South 434 499 40,000  Level Jacksonville Center
09:42AM 33.5369 -77.8808 200° South 427 491 40,000  Level Washington Center
09:44AM 33.4239 -77.9231 197° South 426 490 40,000  Level Washington Center
09:45AM 33.3108 -77.9653 197° South 426 490 40,000  Level Washington Center
09:46AM 33.1986 -78.0072 197° South 425 489 40,000  Level Washington Center
09:47AM 33.0844 -78.0486 197° South 426 490 40,000  Level Washington Center
09:48AM 32.9481 -78.1006 198° South 427 491 40,000  Level Washington Center
09:49AM 32.8342 -78.1425 197° South 427 491 40,000  Level Washington Center
09:50AM 32.7208 -78.1833 197° South 427 491 40,000  Level Washington Center
09:51AM 32.5753 -78.2311 195° South 433 498 40,000  Level Jacksonville Center
09:52AM 32.4619 -78.2689 196° South 433 498 40,000  Level Jacksonville Center
09:53AM 32.3158 -78.3281 199° South 433 498 40,000  Level Jacksonville Center
09:54AM 32.2028 -78.3703 198° South 438 504 40,000  Level Jacksonville Center
09:55AM 32.0850 -78.4106 196° South 432 497 40,000  Level Jacksonville Center
09:56AM 31.9739 -78.4503 197° South 439 505 40,000  Level Jacksonville Center
09:57AM 31.8564 -78.4950 198° South 434 499 40,000  Level Jacksonville Center
09:58AM 31.7431 -78.5347 197° South 424 488 40,000  Level Jacksonville Center
09:59AM 31.6275 -78.5767 197° South 431 496 40,000  Level Jacksonville Center
10:00AM 31.5161 -78.6158 197° South 424 488 40,000  Level Jacksonville Center
10:01AM 31.4067 -78.6525 196° South 417 480 40,000  Level Jacksonville Center
10:02AM 31.2914 -78.6967 198° South 422 486 40,000  Level Jacksonville Center
10:03AM 31.1758 -78.7383 197° South 429 494 40,000  Level Jacksonville Center
10:04AM 31.0642 -78.7722 195° South 430 495 40,000  Level Jacksonville Center
10:05AM 30.9650 -78.8081 197° South 433 498 40,000  Level Jacksonville Center
10:06AM 30.8453 -78.8472 196° South 433 498 40,000  Level Jacksonville Center
10:08AM 30.6222 -78.9264 197° South 434 499 40,000  Level Miami Center
10:09AM 30.5089 -78.9672 197° South 433 498 40,000  Level Miami Center
10:10AM 30.3956 -79.0083 197° South 430 495 40,000  Level Miami Center
10:11AM 30.2839 -79.0569 201° Southwest 430 495 40,000  Level Miami Center
10:12AM 30.1708 -79.1061 201° Southwest 430 495 40,000  Level Miami Center
10:13AM 30.0608 -79.1544 201° Southwest 429 494 40,000  Level Miami Center
10:14AM 29.9483 -79.2028 200° South 429 494 40,000  Level Miami Center
10:15AM 29.8381 -79.2511 201° Southwest 429 494 40,000  Level Miami Center
10:16AM 29.7019 -79.3086 200° South 429 494 40,000  Level Miami Center
10:17AM 29.5875 -79.3586 201° Southwest 435 501 40,000 -540 Level Miami Center
10:18AM 29.4739 -79.4067 200° South 435 501 38,900 -1,740 Descending Miami Center
10:19AM 29.3606 -79.4558 201° Southwest 435 501 36,500 -2,700 Descending Miami Center
10:20AM 29.2456 -79.5042 200° South 435 501 33,400 -3,000 Descending Miami Center
10:21AM 29.1158 -79.5597 201° Southwest 442 509 30,400 -2,760 Descending Miami Center
10:22AM 29.0586 -79.6903 243° Southwest 427 491 27,800 -2,340 Descending Miami Center
10:23AM 29.0206 -79.8114 250° West 422 486 25,600 -2,280 Descending Miami Center
10:24AM 28.9822 -79.9381 251° West 409 471 23,200 -2,280 Descending Miami Center
10:26AM 28.9447 -80.0597 251° West 393 452 20,900 -2,220 Descending Miami Center
10:27AM 28.9086 -80.1783 251° West 382 440 18,700 -2,100 Descending Miami Center
10:28AM 28.8736 -80.2917 251° West 366 421 16,700 -2,040 Descending Miami Center
10:29AM 28.8419 -80.3939 251° West 361 415 14,500 -1,320 Descending Miami Center
10:30AM 28.8206 -80.5039 258° West 339 390 14,000 -660 Descending Miami Center
10:31AM 28.8053 -80.6108 261° West 330 380 13,200 -1,320 Descending Miami Center
10:32AM 28.7517 -80.6994 235° Southwest 325 374 11,300 -1,440 Descending Miami Center
10:33AM 28.7008 -80.7808 235° Southwest 302 348 10,300 -1,140 Descending Miami Center
10:34AM 28.6556 -80.8497 233° Southwest 286 329 9,000 -660 Descending Miami Center
10:35AM 28.6125 -80.9158 233° Southwest 277 319 9,000 -360 Level Miami Center
10:36AM 28.5711 -80.9803 234° Southwest 253 291 8,300 -900 Descending Miami Center
10:37AM 28.5558 -81.0536 257° West 246 283 7,200 -1,080 Descending Miami Center
10:38AM 28.5483 -81.1419 264° West 238 274 6,100 -1,080 Descending Miami Center
10:39AM 28.5958 -81.1653 337° Northwest 210 242 5,000 -1,020 Descending Miami Center
10:40AM 28.6258 -81.2203 302° West 198 228 4,000 -540 Descending Miami Center
10:41AM 28.6428 -81.2781 288° West 197 227 4,000 -300 Level Miami Center
10:42AM 28.5833 -81.3000 198° South 185 213 3,400 -900 Descending Orlando TRACON
10:43AM 28.5333 -81.3000 180° South 156 180 2,200 -1,080 Descending Orlando TRACON
10:44AM 28.5000 -81.3000 180° South 146 168 1,300 -840 Descending Orlando TRACON
10:45AM 28.4667 -81.3000 180° South 146 168 600 -720 Descending Orlando TRACON
10:47AM 28.4294 -81.3090 180° South  Level Estimated